Votorantim, Brazil
Current Conditions -  °F | °C
As of 10:00 AM on Saturday 25 Oct 2014 (Local Time) from SBKP Reporting Station
Broken Clouds Broken Clouds  
Wind Chill: 72°   Ceiling: 10000
Heat Index: 72°   Visibility: 6mi
Dew Point: 63°   Wind: 0mph
Humidity: 73%   Direction: NA
Pressure: 30.06"   Gusts: NA
Location:  23.55°S, 47.43°W
Report Text: SBKP 251200Z 00000KT 9999 FEW015 BKN100 22/17 Q1018
Loading
Personal Weather Stations






























Interactive Weather Map
Tropical Storm Tracking
New forecast layout! Learn more

10-Day Weather Forecast

Advertisements
Track Severe Weather on mobile